createdAt,value
2022-11-19T00:01:51.209Z,72.16
2022-11-19T00:04:23.587Z,71.38
2022-11-19T00:06:55.266Z,71.11
2022-11-19T00:09:26.999Z,70.54
2022-11-19T00:12:17.089Z,70.48
2022-11-19T00:14:48.737Z,70.09
2022-11-19T00:17:20.424Z,70.05
2022-11-19T00:19:52.001Z,69.93
2022-11-19T00:22:23.544Z,69.53
2022-11-19T00:24:55.207Z,69.11
2022-11-19T00:27:26.736Z,69.36
2022-11-19T00:29:58.365Z,69.02
2022-11-19T00:32:31.138Z,69.47
2022-11-19T00:35:02.846Z,69.17
2022-11-19T00:37:34.496Z,68.74
2022-11-19T00:40:08.906Z,69.08
2022-11-19T00:43:00.548Z,68.81
2022-11-19T00:45:32.277Z,68.85
2022-11-19T00:48:04.148Z,69.37
2022-11-19T00:50:35.841Z,68.25
2022-11-19T00:53:10.002Z,67.61
2022-11-19T00:55:41.684Z,68.44
2022-11-19T00:58:13.886Z,69.15
2022-11-19T01:00:46.246Z,69.57
2022-11-19T01:03:17.855Z,69.67
2022-11-19T01:05:49.490Z,69.73
2022-11-19T01:08:21.268Z,69.58
2022-11-19T01:10:52.944Z,69.71
2022-11-19T01:13:36.792Z,69.39
2022-11-19T01:16:14.287Z,69.00
2022-11-19T01:18:48.142Z,69.06
2022-11-19T01:21:22.833Z,69.57
2022-11-19T01:23:54.502Z,69.85
2022-11-19T01:26:27.650Z,69.71
2022-11-19T01:28:59.305Z,69.85
2022-11-19T01:31:31.121Z,69.73
2022-11-19T01:34:02.920Z,69.80
2022-11-19T01:36:34.477Z,69.47
2022-11-19T01:39:06.134Z,70.52
2022-11-19T01:41:37.842Z,70.58
2022-11-19T01:45:04.834Z,71.65
2022-11-19T01:47:36.626Z,71.15
2022-11-19T01:50:08.566Z,71.42
2022-11-19T01:52:40.743Z,71.49
2022-11-19T01:55:13.078Z,72.22
2022-11-19T01:57:45.100Z,71.80
2022-11-19T02:00:17.297Z,71.71
2022-11-19T02:02:49.443Z,71.92
2022-11-19T02:05:22.167Z,71.78
2022-11-19T02:07:56.552Z,71.78
2022-11-19T02:11:12.875Z,71.62
2022-11-19T02:13:56.215Z,71.53
2022-11-19T02:16:47.997Z,72.08
2022-11-19T02:19:48.180Z,72.41
2022-11-19T02:22:51.900Z,72.56
2022-11-19T02:25:51.281Z,72.24
2022-11-19T02:28:48.430Z,72.36
2022-11-19T02:31:31.115Z,72.20
2022-11-19T02:34:23.910Z,72.25
2022-11-19T02:37:01.987Z,71.69
2022-11-19T02:39:36.623Z,72.21
2022-11-19T02:42:21.233Z,72.11
2022-11-19T02:44:59.662Z,71.99
2022-11-19T02:47:52.290Z,72.16
2022-11-19T02:50:32.441Z,72.39
2022-11-19T02:53:05.240Z,73.08
2022-11-19T02:55:39.561Z,73.86
2022-11-19T02:58:37.376Z,73.89
2022-11-19T03:01:27.635Z,73.96
2022-11-19T03:04:17.777Z,74.30
2022-11-19T03:06:49.917Z,73.88
2022-11-19T03:09:22.365Z,73.47
2022-11-19T03:12:04.532Z,73.23
2022-11-19T03:15:15.490Z,72.70
2022-11-19T03:17:59.012Z,73.50
2022-11-19T03:20:37.231Z,73.86
2022-11-19T03:23:32.068Z,74.27
2022-11-19T03:26:22.714Z,73.98
2022-11-19T03:28:58.317Z,74.39
2022-11-19T03:31:33.069Z,74.43
2022-11-19T03:34:12.029Z,74.08
2022-11-19T03:36:46.155Z,74.65
2022-11-19T03:39:23.270Z,74.74
2022-11-19T03:41:57.086Z,74.79
2022-11-19T03:44:51.479Z,73.89
2022-11-19T03:47:27.790Z,73.89
2022-11-19T03:50:05.680Z,73.88
2022-11-19T03:52:37.287Z,74.02
2022-11-19T03:55:08.987Z,74.47
2022-11-19T03:57:40.723Z,74.19
2022-11-19T04:00:13.025Z,74.25
2022-11-19T04:02:44.618Z,73.98
2022-11-19T04:05:16.284Z,74.09
2022-11-19T04:07:47.965Z,74.12
2022-11-19T04:10:19.658Z,73.71
2022-11-19T04:12:51.227Z,74.17
2022-11-19T04:15:22.863Z,74.12
2022-11-19T04:17:54.437Z,74.77
2022-11-19T04:20:26.239Z,74.75
2022-11-19T04:22:58.372Z,75.11
2022-11-19T04:25:29.938Z,75.57
2022-11-19T04:28:01.608Z,75.50
2022-11-19T04:30:33.244Z,75.64
2022-11-19T04:33:05.124Z,74.69
2022-11-19T04:35:36.689Z,74.22
2022-11-19T04:38:08.315Z,73.81
2022-11-19T04:40:39.888Z,73.81
2022-11-19T04:43:11.468Z,74.34
2022-11-19T04:45:44.329Z,74.25
2022-11-19T04:48:16.247Z,74.26
2022-11-19T04:50:47.818Z,74.18
2022-11-19T04:53:19.876Z,73.98
2022-11-19T04:55:51.631Z,73.72
2022-11-19T04:58:23.320Z,74.18
2022-11-19T05:00:57.708Z,73.48
2022-11-19T05:03:29.529Z,73.71
2022-11-19T05:06:01.311Z,73.29
2022-11-19T05:08:32.930Z,73.22
2022-11-19T05:11:04.657Z,73.30
2022-11-19T05:13:36.382Z,73.43
2022-11-19T05:16:08.243Z,73.17
2022-11-19T05:18:40.235Z,73.04
2022-11-19T05:21:11.920Z,73.37
2022-11-19T05:23:43.647Z,73.23
2022-11-19T05:26:15.288Z,72.88
2022-11-19T05:28:46.864Z,72.70
2022-11-19T05:31:18.552Z,72.75
2022-11-19T05:33:50.529Z,72.46
2022-11-19T05:36:22.327Z,72.24
2022-11-19T05:38:54.050Z,72.38
2022-11-19T05:41:25.663Z,72.24
2022-11-19T05:43:57.673Z,72.62
2022-11-19T05:46:29.317Z,72.05
2022-11-19T05:49:00.959Z,72.39
2022-11-19T05:51:32.626Z,71.55
2022-11-19T05:54:04.305Z,71.12
2022-11-19T05:56:35.934Z,70.79
2022-11-19T05:59:07.572Z,70.96
2022-11-19T06:01:39.237Z,70.55
2022-11-19T06:04:11.922Z,70.33
2022-11-19T06:06:43.482Z,70.09
2022-11-19T06:09:15.092Z,69.87
2022-11-19T06:11:50.258Z,69.72
2022-11-19T06:14:25.060Z,69.90
2022-11-19T06:16:57.488Z,69.58
2022-11-19T06:19:29.240Z,69.71
2022-11-19T06:22:00.874Z,69.79
2022-11-19T06:24:32.520Z,69.65
2022-11-19T06:27:04.248Z,69.64
2022-11-19T06:29:35.827Z,69.26
2022-11-19T06:32:07.381Z,69.49
2022-11-19T06:34:38.997Z,69.38
2022-11-19T06:37:10.539Z,69.31
2022-11-19T06:39:42.930Z,69.32
2022-11-19T06:42:32.964Z,69.46
2022-11-19T06:45:13.787Z,70.08
2022-11-19T06:47:48.486Z,70.63
2022-11-19T06:50:23.117Z,71.24
2022-11-19T06:52:54.802Z,70.93
2022-11-19T06:55:29.203Z,71.14
2022-11-19T06:58:04.550Z,70.96
2022-11-19T07:00:36.915Z,71.11
2022-11-19T07:03:08.542Z,71.40
2022-11-19T07:05:40.782Z,71.11
2022-11-19T07:08:12.412Z,71.05
2022-11-19T07:10:44.004Z,70.95
2022-11-19T07:13:18.337Z,70.78
2022-11-19T07:15:50.016Z,71.14
2022-11-19T07:18:21.624Z,70.94
2022-11-19T07:20:53.228Z,71.05
2022-11-19T07:23:25.663Z,71.25
2022-11-19T07:26:03.333Z,70.91
2022-11-19T07:28:35.067Z,70.49
2022-11-19T07:31:08.056Z,71.20
2022-11-19T07:33:39.809Z,71.46
2022-11-19T07:36:17.006Z,71.14
2022-11-19T07:38:52.272Z,70.88
2022-11-19T07:41:42.526Z,70.45
2022-11-19T07:44:14.143Z,69.91
2022-11-19T07:46:45.860Z,69.57
2022-11-19T07:49:18.064Z,69.18
2022-11-19T07:51:49.987Z,68.78
2022-11-19T07:54:21.629Z,69.01
2022-11-19T07:56:53.439Z,68.18
2022-11-19T07:59:26.927Z,67.21
2022-11-19T08:01:58.659Z,66.38
2022-11-19T08:04:30.326Z,66.30
2022-11-19T08:07:02.131Z,66.42
2022-11-19T08:09:34.082Z,65.75
2022-11-19T08:12:05.999Z,66.79
2022-11-19T08:14:39.741Z,65.84
2022-11-19T08:17:29.915Z,65.18
2022-11-19T08:20:01.537Z,65.30
2022-11-19T08:22:33.221Z,64.15
2022-11-19T08:25:06.285Z,63.41
2022-11-19T08:27:37.909Z,61.22
2022-11-19T08:30:10.017Z,60.17
2022-11-19T08:32:41.847Z,59.97
2022-11-19T08:35:13.496Z,59.93
2022-11-19T08:37:47.009Z,59.84
2022-11-19T08:40:18.764Z,59.80
2022-11-19T08:43:02.619Z,59.72
2022-11-19T08:45:35.487Z,59.45
2022-11-19T08:48:10.601Z,59.33
2022-11-19T08:50:42.591Z,59.74
2022-11-19T08:53:14.236Z,59.95
2022-11-19T08:55:51.628Z,60.20
2022-11-19T08:58:23.357Z,59.69
2022-11-19T09:00:55.295Z,61.07
2022-11-19T09:03:27.026Z,60.48
2022-11-19T09:05:59.928Z,61.72
2022-11-19T09:08:31.848Z,61.81
2022-11-19T09:11:15.279Z,61.82
2022-11-19T09:13:46.981Z,61.94
2022-11-19T09:16:18.891Z,61.60
2022-11-19T09:18:50.522Z,61.37
2022-11-19T09:21:22.184Z,60.19
2022-11-19T09:23:53.814Z,59.70
2022-11-19T09:26:25.425Z,58.76
2022-11-19T09:28:57.135Z,57.87
2022-11-19T09:31:28.731Z,57.31
2022-11-19T09:34:00.418Z,57.58
2022-11-19T09:36:32.195Z,58.04
2022-11-19T09:39:03.936Z,58.49
2022-11-19T09:42:16.359Z,59.08
2022-11-19T09:45:08.007Z,60.49
2022-11-19T09:47:59.112Z,60.78
2022-11-19T09:50:50.355Z,59.41
2022-11-19T09:53:30.311Z,58.45
2022-11-19T09:56:02.858Z,58.52
2022-11-19T09:58:44.094Z,56.98
2022-11-19T10:01:18.319Z,55.86
2022-11-19T10:03:53.473Z,54.99
2022-11-19T10:06:34.398Z,54.02
2022-11-19T10:09:11.961Z,55.18
2022-11-19T10:12:01.944Z,55.06
2022-11-19T10:14:55.604Z,55.73
2022-11-19T10:17:36.195Z,55.19
2022-11-19T10:20:49.215Z,54.88
2022-11-19T10:23:36.981Z,55.64
2022-11-19T10:26:17.899Z,55.66
2022-11-19T10:28:57.535Z,56.29
2022-11-19T10:31:38.983Z,56.92
2022-11-19T10:34:16.481Z,56.41
2022-11-19T10:36:55.988Z,56.08
2022-11-19T10:39:37.189Z,56.42
2022-11-19T10:42:41.736Z,56.76
2022-11-19T10:45:25.120Z,56.68
2022-11-19T10:48:09.575Z,57.04
2022-11-19T10:50:42.365Z,56.44
2022-11-19T10:53:26.828Z,55.74
2022-11-19T10:56:12.300Z,56.31
2022-11-19T10:58:52.886Z,56.57
2022-11-19T11:01:31.900Z,56.84
2022-11-19T11:04:20.298Z,56.71
2022-11-19T11:06:55.385Z,57.13
2022-11-19T11:09:31.896Z,58.31
2022-11-19T11:12:31.092Z,57.89
2022-11-19T11:15:15.756Z,58.38
2022-11-19T11:17:48.899Z,58.15
2022-11-19T11:20:27.203Z,58.29
2022-11-19T11:23:15.328Z,58.20
2022-11-19T11:25:59.148Z,58.11
2022-11-19T11:28:30.889Z,59.36
2022-11-19T11:31:10.603Z,59.25
2022-11-19T11:33:53.979Z,59.89
2022-11-19T11:36:27.659Z,60.58
2022-11-19T11:39:01.381Z,60.47
2022-11-19T11:44:37.116Z,60.63
2022-11-19T11:47:15.045Z,61.01
2022-11-19T11:49:51.571Z,60.68
2022-11-19T11:52:51.457Z,60.48
2022-11-19T11:55:22.979Z,60.05
2022-11-19T11:58:03.336Z,60.24
2022-11-19T12:00:46.055Z,59.21
2022-11-19T12:03:19.597Z,59.19
2022-11-19T12:06:15.528Z,58.39
2022-11-19T12:08:56.314Z,58.26
2022-11-19T12:11:56.425Z,57.93
2022-11-19T12:14:46.849Z,58.15
2022-11-19T12:17:40.804Z,58.36
2022-11-19T12:20:39.419Z,58.56
2022-11-19T12:23:16.854Z,57.99
2022-11-19T12:26:27.628Z,58.27
2022-11-19T12:29:28.059Z,57.98
2022-11-19T12:32:13.952Z,57.19
2022-11-19T12:35:30.108Z,56.28
2022-11-19T12:38:30.046Z,54.56
2022-11-19T12:41:21.262Z,55.77
2022-11-19T12:44:21.989Z,56.11
2022-11-19T12:47:31.944Z,56.41
2022-11-19T12:50:11.382Z,56.66
2022-11-19T12:52:52.065Z,55.65
2022-11-19T12:55:45.629Z,55.25
2022-11-19T12:58:25.583Z,55.73
2022-11-19T13:01:00.791Z,55.41
2022-11-19T13:03:50.556Z,55.75
2022-11-19T13:06:32.089Z,55.12
2022-11-19T13:09:30.753Z,55.45
2022-11-19T13:12:16.435Z,55.72
2022-11-19T13:14:55.255Z,55.44
2022-11-19T13:17:32.795Z,55.66
2022-11-19T13:20:13.494Z,54.27
2022-11-19T13:22:49.731Z,55.09
2022-11-19T13:25:30.696Z,55.05
2022-11-19T13:28:07.082Z,54.56
2022-11-19T13:30:50.590Z,54.76
2022-11-19T13:33:32.224Z,54.58
2022-11-19T13:36:03.925Z,54.52
2022-11-19T13:38:49.335Z,54.66
2022-11-19T13:41:31.838Z,55.06
2022-11-19T13:44:23.297Z,54.83
2022-11-19T13:46:59.446Z,53.93
2022-11-19T13:49:42.982Z,54.03
2022-11-19T13:52:30.198Z,53.49
2022-11-19T13:55:31.163Z,53.44
2022-11-19T13:58:14.309Z,53.76
2022-11-19T14:01:07.930Z,54.13
2022-11-19T14:03:39.979Z,54.18
2022-11-19T14:06:29.530Z,54.53
2022-11-19T14:09:19.804Z,54.31
2022-11-19T14:12:11.801Z,53.60
2022-11-19T14:15:23.747Z,53.51
2022-11-19T14:18:47.966Z,54.39
2022-11-19T14:21:43.586Z,54.43
2022-11-19T14:24:47.940Z,53.53
2022-11-19T14:27:37.206Z,56.77
2022-11-19T14:30:12.338Z,58.27
2022-11-19T14:32:49.673Z,60.08
2022-11-19T14:35:27.183Z,62.22
2022-11-19T14:38:13.931Z,62.43
2022-11-19T14:41:03.681Z,63.07
2022-11-19T14:44:11.435Z,64.51
2022-11-19T14:46:46.780Z,63.91
2022-11-19T14:49:24.325Z,65.60
2022-11-19T14:52:00.421Z,64.77
2022-11-19T14:54:38.823Z,65.50
2022-11-19T14:57:35.638Z,65.55
2022-11-19T15:00:28.954Z,66.84
2022-11-19T15:03:05.944Z,66.63
2022-11-19T15:05:43.742Z,66.85
2022-11-19T15:08:18.481Z,67.77
2022-11-19T15:11:05.370Z,67.93
2022-11-19T15:13:40.704Z,67.30
2022-11-19T15:16:25.402Z,67.66
2022-11-19T15:19:08.853Z,67.83
2022-11-19T15:22:08.376Z,68.38
2022-11-19T15:24:42.948Z,68.60
2022-11-19T15:27:49.110Z,68.51
2022-11-19T15:30:24.335Z,67.56
2022-11-19T15:33:22.834Z,68.15
2022-11-19T15:36:47.040Z,68.08
2022-11-19T15:39:39.409Z,68.29
2022-11-19T15:42:16.517Z,68.88
2022-11-19T15:45:00.663Z,69.27
2022-11-19T15:47:44.104Z,69.14
2022-11-19T15:50:36.757Z,69.03
2022-11-19T15:53:21.082Z,68.50
2022-11-19T15:55:58.540Z,69.17
2022-11-19T15:58:37.124Z,69.47
2022-11-19T16:01:13.897Z,69.58
2022-11-19T16:03:47.543Z,69.32
2022-11-19T16:06:22.680Z,69.54
2022-11-19T16:08:56.660Z,69.76
2022-11-19T16:11:53.568Z,69.72
2022-11-19T16:14:48.602Z,70.32
2022-11-19T16:17:34.930Z,70.36
2022-11-19T16:20:10.070Z,70.99
2022-11-19T16:22:56.370Z,71.47
2022-11-19T16:25:37.595Z,71.32
2022-11-19T16:28:27.773Z,72.24
2022-11-19T16:31:06.006Z,72.30
2022-11-19T16:33:40.283Z,72.45
2022-11-19T16:36:17.093Z,72.58
2022-11-19T16:38:51.569Z,73.02
2022-11-19T16:41:43.348Z,73.15
2022-11-19T16:44:21.622Z,73.75
2022-11-19T16:46:53.733Z,73.41
2022-11-19T16:49:44.031Z,73.57
2022-11-19T16:52:36.971Z,73.58
2022-11-19T16:55:19.774Z,73.75
2022-11-19T16:58:00.531Z,73.79
2022-11-19T17:00:38.240Z,73.85
2022-11-19T17:03:41.783Z,74.23
2022-11-19T17:06:24.175Z,74.10
2022-11-19T17:09:02.035Z,74.21
2022-11-19T17:12:04.360Z,74.07
2022-11-19T17:14:35.948Z,74.11
2022-11-19T17:17:27.079Z,73.85
2022-11-19T17:19:59.219Z,74.36
2022-11-19T17:22:34.576Z,74.53
2022-11-19T17:25:13.506Z,74.64
2022-11-19T17:27:51.431Z,75.12
2022-11-19T17:30:26.588Z,75.11
2022-11-19T17:33:01.566Z,74.85
2022-11-19T17:35:41.522Z,74.33
2022-11-19T17:38:27.096Z,74.00
2022-11-19T17:41:01.414Z,74.18
2022-11-19T17:43:56.640Z,74.12
2022-11-19T17:46:29.915Z,74.02
2022-11-19T17:49:03.631Z,73.99
2022-11-19T17:51:37.236Z,73.16
2022-11-19T17:54:12.904Z,73.03
2022-11-19T17:56:44.542Z,73.48
2022-11-19T17:59:16.227Z,72.67
2022-11-19T18:01:47.916Z,72.10
2022-11-19T18:04:19.977Z,72.30
2022-11-19T18:06:51.836Z,72.25
2022-11-19T18:09:23.781Z,72.51
2022-11-19T18:11:55.786Z,72.98
2022-11-19T18:14:28.035Z,73.29
2022-11-19T18:16:59.829Z,73.16
2022-11-19T18:19:31.612Z,73.59
2022-11-19T18:22:03.265Z,73.72
2022-11-19T18:24:34.908Z,73.87
2022-11-19T18:27:06.597Z,73.49
2022-11-19T18:29:38.286Z,73.53
2022-11-19T18:32:17.089Z,73.40
2022-11-19T18:34:51.287Z,72.81
2022-11-19T18:37:23.177Z,72.45
2022-11-19T18:39:55.260Z,72.65
2022-11-19T18:42:28.125Z,72.57
2022-11-19T18:44:59.800Z,72.84
2022-11-19T18:47:37.521Z,73.03
2022-11-19T18:50:12.308Z,73.17
2022-11-19T18:52:43.875Z,73.58
2022-11-19T18:55:15.530Z,73.52
2022-11-19T18:57:49.778Z,72.95
2022-11-19T19:00:22.753Z,72.59
2022-11-19T19:02:54.424Z,72.82
2022-11-19T19:05:26.083Z,72.86
2022-11-19T19:07:57.756Z,73.05
2022-11-19T19:10:29.748Z,73.03
2022-11-19T19:13:01.327Z,72.91
2022-11-19T19:15:32.896Z,73.46
2022-11-19T19:18:07.761Z,73.00
2022-11-19T19:20:39.673Z,73.16
2022-11-19T19:23:11.269Z,73.25
2022-11-19T19:25:42.910Z,73.50
2022-11-19T19:28:14.554Z,73.62
2022-11-19T19:30:48.340Z,73.65
2022-11-19T19:33:20.088Z,73.85
2022-11-19T19:35:51.776Z,74.23
2022-11-19T19:38:23.859Z,74.44
2022-11-19T19:41:04.113Z,74.47
2022-11-19T19:43:35.759Z,74.34
2022-11-19T19:46:13.490Z,74.31
2022-11-19T19:48:47.122Z,74.32
2022-11-19T19:51:23.162Z,74.19
2022-11-19T19:53:55.847Z,74.34
2022-11-19T19:56:31.582Z,74.34
2022-11-19T19:59:03.233Z,73.88
2022-11-19T20:01:36.266Z,74.26
2022-11-19T20:04:10.577Z,74.34
2022-11-19T20:06:46.019Z,74.58
2022-11-19T20:09:17.672Z,74.35
2022-11-19T20:11:49.342Z,74.54
2022-11-19T20:14:24.264Z,74.56
2022-11-19T20:16:55.973Z,74.97
2022-11-19T20:19:27.610Z,75.08
2022-11-19T20:21:59.325Z,75.11
2022-11-19T20:24:31.036Z,75.64
2022-11-19T20:27:02.644Z,75.50
2022-11-19T20:29:34.254Z,75.92
2022-11-19T20:32:08.726Z,75.82
2022-11-19T20:34:40.397Z,75.30
2022-11-19T20:37:11.967Z,75.57
2022-11-19T20:39:43.638Z,75.92
2022-11-19T20:42:35.895Z,76.05
2022-11-19T20:45:08.294Z,75.88
2022-11-19T20:47:39.944Z,75.92
2022-11-19T20:50:11.610Z,75.73
2022-11-19T20:52:43.395Z,75.69
2022-11-19T20:55:15.029Z,75.55
2022-11-19T20:57:46.604Z,75.60
2022-11-19T21:00:18.868Z,75.46
2022-11-19T21:02:51.892Z,75.11
2022-11-19T21:05:23.692Z,75.14
2022-11-19T21:07:55.341Z,75.46
2022-11-19T21:10:27.092Z,75.03
2022-11-19T21:13:01.493Z,75.68
2022-11-19T21:15:37.063Z,75.75
2022-11-19T21:18:08.648Z,75.92
2022-11-19T21:20:40.545Z,75.91
2022-11-19T21:23:12.184Z,76.35
2022-11-19T21:25:43.805Z,76.67
2022-11-19T21:28:15.489Z,76.37
2022-11-19T21:30:52.056Z,76.11
2022-11-19T21:33:26.500Z,76.13
2022-11-19T21:35:59.451Z,76.50
2022-11-19T21:38:32.239Z,76.28
2022-11-19T21:41:04.488Z,76.51
2022-11-19T21:43:37.304Z,76.42
2022-11-19T21:46:08.972Z,76.40
2022-11-19T21:48:40.611Z,76.50
2022-11-19T21:51:12.490Z,76.69
2022-11-19T21:53:44.092Z,76.67
2022-11-19T21:56:15.698Z,76.84
2022-11-19T21:58:50.536Z,77.01
2022-11-19T22:01:22.403Z,76.84
2022-11-19T22:03:54.075Z,76.74
2022-11-19T22:06:25.727Z,76.76
2022-11-19T22:09:00.325Z,76.59
2022-11-19T22:11:32.387Z,76.61
2022-11-19T22:14:06.535Z,76.52
2022-11-19T22:16:40.162Z,76.12
2022-11-19T22:19:12.292Z,76.21
2022-11-19T22:21:43.876Z,76.45
2022-11-19T22:24:15.572Z,76.35
2022-11-19T22:26:47.985Z,76.23
2022-11-19T22:29:19.806Z,76.37
2022-11-19T22:31:51.596Z,76.28
2022-11-19T22:34:23.187Z,76.31
2022-11-19T22:36:54.735Z,76.78
2022-11-19T22:39:26.348Z,76.41
2022-11-19T22:41:58.025Z,76.10
2022-11-19T22:44:29.623Z,76.13
2022-11-19T22:47:01.601Z,76.20
2022-11-19T22:49:33.514Z,76.38
2022-11-19T22:52:05.115Z,76.62
2022-11-19T22:54:41.405Z,76.61
2022-11-19T22:57:13.440Z,76.16
2022-11-19T22:59:45.081Z,76.21
2022-11-19T23:02:19.421Z,76.33
2022-11-19T23:04:51.099Z,76.12
2022-11-19T23:07:22.719Z,76.01
2022-11-19T23:09:54.364Z,76.14
2022-11-19T23:12:44.591Z,75.86
2022-11-19T23:15:16.305Z,75.74
2022-11-19T23:17:47.876Z,75.83
2022-11-19T23:20:20.485Z,76.18
2022-11-19T23:22:52.122Z,76.03
2022-11-19T23:25:23.750Z,75.89
2022-11-19T23:27:57.717Z,75.63
2022-11-19T23:30:29.372Z,76.13
2022-11-19T23:33:00.972Z,75.75
2022-11-19T23:35:35.674Z,75.54
2022-11-19T23:38:07.306Z,75.71
2022-11-19T23:40:38.959Z,75.47
2022-11-19T23:43:12.920Z,75.73
2022-11-19T23:45:44.587Z,75.77
2022-11-19T23:48:17.424Z,76.18
2022-11-19T23:50:50.092Z,75.73
2022-11-19T23:53:21.674Z,76.01
2022-11-19T23:55:53.257Z,76.03
2022-11-19T23:58:24.806Z,75.79
